Dorset, MN

12:02 PM CST on December 06, 2016 (GMT -0600)
Park Rapids Municipal | | Change Station

Elev 1440 ft 46.90 °N, 95.07 °W | Updated 9 minutes ago

Light Snow
Light Snow
23 °F
Feels Like 8 °F
N
20
Wind Variable Wind from SW

Today
High -- | Low -- °F
--% Chance of Precip.
Yesterday
High -- | Low -- °F
Precip. -- in
Pressure 29.44 in
Visibility 1.0 miles
Clouds Scattered Clouds 1600 ft
Overcast 2300 ft
Windchill 8 °F
Dew Point 17 °F
Humidity 78%
Rainfall 0.00 in
Snow Depth Not available.
7:50 AM 4:31 PM
Waxing Crescent, 43% visible
METAR KPKD 061753Z AUTO 23017KT 1SM -SN SCT016 OVC023 M05/M08 A2938 RMK AO2 PK WND 21026/1713 SLP967 P0000 60000 T10501083 11050 21078 56014
Pressure 29.44 in
Visibility 1.0 miles
Clouds Scattered Clouds 1600 ft
Overcast 2300 ft
Windchill 8 °F
Dew Point 17 °F
Humidity 78%
Rainfall 0.00 in
Snow Depth Not available.
7:50 AM 4:31 PM
Waxing Crescent, 43% visible
METAR KPKD 061753Z AUTO 23017KT 1SM -SN SCT016 OVC023 M05/M08 A2938 RMK AO2 PK WND 21026/1713 SLP967 P0000 60000 T10501083 11050 21078 56014

10-Day Weather Forecast

Almanac

Astronomy

Dec. 06, 2016 Rise Set
Actual Time
Civil Twilight
Nautical Twilight
Astronomical Twilight
Moon
Length of Visible Light
Length of Day
Tomorrow will be .
, % of the Moon is Illuminated

Today's Extremes

State Highs State Lows

Community

WunderPhotos

Upload Photos

1,955,989 photos uploaded!

WunderBlog® & News

Nearby

Air Quality

  Air Quality AQ Index Pollutant
Not available.

Snow Depth

Station Depth Elevation

Earthquake Activity

City Distance Mag. Time & Date
Minimum magnitude displayed is 2.5.

Coastal Water Temperatures

Place Temperature

Stations

Nearby Weather Stations

Station Location Temp. Windchill Dew Point Humidity Wind Precip. Elev Updated Type
                   

Watches & Warnings

There are currently no watches in effect.